Flight Track Log - Related Links

Times and Time Zones

All times are in EDT time to prevent confusion due to time zone crossing. See the ACA831 flight status page for this flight to view local times or setup timezone preferences in your user account.

Time Position Orientation Groundspeed Altitude Reporting Facility
EDT Latitude Longitude Course Direction KTS MPH feet Rate Location/Type
Sun 06:20:39 AM 46.2460 6.1200 270° West 105 121  Level FlightAware ADS-B
Sun 06:21:05 AM 46.2330 6.1010 225° Southwest 172 198 1,600 3,360 Climbing FlightAware ADS-B
Sun 06:21:29 AM 46.2200 6.0830 224° Southwest 159 183 2,800 2,327 Climbing FlightAware ADS-B
Sun 06:21:54 AM 46.2070 6.0640 225° Southwest 171 197 3,500 2,087 Climbing FlightAware ADS-B
Sun 06:22:15 AM 46.1940 6.0450 225° Southwest 173 199 4,400 2,488 Climbing FlightAware ADS-B
Sun 06:22:35 AM 46.1830 6.0290 225° Southwest 167 192 5,200 2,154 Climbing FlightAware ADS-B
Sun 06:22:54 AM 46.1720 6.0120 227° Southwest 187 215 5,800 1,800 Climbing FlightAware ADS-B
Sun 06:23:25 AM 46.1520 5.9820 226° Southwest 208 239 6,700 2,000 Climbing FlightAware ADS-B
Sun 06:23:45 AM 46.1390 5.9630 225° Southwest 209 241 7,500 2,647 Climbing FlightAware ADS-B
Sun 06:23:59 AM 46.1290 5.9470 228° Southwest 205 236 8,200 2,294 Climbing FlightAware ADS-B
Sun 06:24:19 AM 46.1160 5.9260 228° Southwest 218 251 8,800 1,543 Climbing FlightAware ADS-B
Sun 06:24:34 AM 46.1070 5.9090 233° Southwest 235 270 9,100 1,429 Climbing FlightAware ADS-B
Sun 06:24:40 AM 46.1040 5.9000 244° Southwest 240 276 9,300 2,400 Climbing FlightAware ADS-B
Sun 06:24:44 AM 46.1030 5.8920 260° West 245 282 9,500 2,571 Climbing FlightAware ADS-B
Sun 06:24:54 AM 46.1040 5.8760 275° West 248 285 9,900 2,000 Climbing FlightAware ADS-B
Sun 06:25:05 AM 46.1090 5.8600 294° West 259 298 10,200 1,440 Climbing FlightAware ADS-B
Sun 06:25:44 AM 46.1390 5.7960 304° West 315 362 11,100 1,378 Climbing FlightAware ADS-B
Sun 06:26:19 AM 46.1690 5.7290 303° West 358 412 11,900 1,543 Climbing FlightAware ADS-B
Sun 06:26:54 AM 46.2010 5.6570 303° West 382 440 12,900 2,123 Climbing FlightAware ADS-B
Sun 06:27:24 AM 46.2310 5.5940 305° West 395 455 14,200 2,640 Climbing FlightAware ADS-B
Sun 06:27:44 AM 46.2590 5.5620 322° Northwest 400 460 15,100 2,850 Climbing FlightAware ADS-B
Sun 06:28:04 AM 46.2960 5.5400 338° Northwest 403 464 16,100 2,640 Climbing FlightAware ADS-B
Sun 06:28:34 AM 46.3510 5.5140 342° North 421 484 17,300 2,545 Climbing FlightAware ADS-B
Sun 06:29:10 AM 46.4190 5.4820 342° North 420 483 18,900 2,583 Climbing FlightAware ADS-B
Sun 06:29:46 AM 46.4900 5.4490 342° North 435 501 20,400 2,189 Climbing FlightAware ADS-B
Sun 06:30:24 AM 46.5620 5.4160 343° North 445 512 21,600 1,811 Climbing FlightAware ADS-B
Sun 06:30:39 AM 46.5900 5.3970 335° Northwest 451 519 22,000 1,660 Climbing FlightAware ADS-B
Sun 06:31:11 AM 46.6440 5.3360 322° Northwest 456 525 22,900 1,818 Climbing FlightAware ADS-B
Sun 06:31:45 AM 46.7010 5.2760 324° Northwest 463 533 24,000 1,750 Climbing FlightAware ADS-B
Sun 06:32:23 AM 46.7700 5.2080 326° Northwest 476 548 25,000 1,946 Climbing FlightAware ADS-B
Sun 06:32:59 AM 46.8360 5.1460 327° Northwest 474 545 26,400 2,522 Climbing FlightAware ADS-B
Sun 06:33:32 AM 46.8650 5.1170 326° Northwest 468 539 27,900 2,559 Climbing FlightAware ADS-B
Sun 06:34:07 AM 46.9560 5.0230 325° Northwest 458 527 29,300 1,726 Climbing FlightAware ADS-B
Sun 06:34:45 AM 47.0190 4.9540 323° Northwest 459 528 30,000 545 Climbing FlightAware ADS-B
Sun 06:35:24 AM 47.0870 4.8810 324° Northwest 459 528 30,000  Level FlightAware ADS-B
Sun 06:36:09 AM 47.1630 4.7990 324° Northwest 453 521 30,000  Level FlightAware ADS-B
Sun 06:36:50 AM 47.2290 4.7280 324° Northwest 448 516 30,000  Level FlightAware ADS-B
Sun 06:37:20 AM 47.2800 4.6730 324° Northwest 448 516 30,000  Level FlightAware ADS-B
Sun 06:37:58 AM 47.3470 4.6060 326° Northwest 446 513 30,000  Level FlightAware ADS-B
Sun 06:38:32 AM 47.4020 4.5500 325° Northwest 446 513 30,000  Level FlightAware ADS-B
Sun 06:39:08 AM 47.4660 4.4840 325° Northwest 451 519 30,000 417 Level FlightAware ADS-B
Sun 06:39:44 AM 47.5270 4.4210 325° Northwest 453 521 30,500 833 Climbing FlightAware ADS-B
Sun 06:40:20 AM 47.5890 4.3570 325° Northwest 452 520 31,000 750 Climbing FlightAware ADS-B
Sun 06:40:56 AM 47.6490 4.2950 325° Northwest 444 511 31,400 789 Climbing FlightAware ADS-B
Sun 06:41:36 AM 47.7160 4.2250 325° Northwest 429 494 32,000 474 Climbing FlightAware ADS-B
Sun 06:42:12 AM 47.7720 4.1660 325° Northwest 428 493 32,000  Level FlightAware ADS-B
Sun 06:42:44 AM 47.8240 4.1120 325° Northwest 433 498 32,000  Level FlightAware ADS-B
Sun 06:43:20 AM 47.8830 4.0500 325° Northwest 436 502 32,000  Level FlightAware ADS-B
Sun 06:43:56 AM 47.9420 3.9870 324° Northwest 436 502 32,000  Level FlightAware ADS-B
Sun 06:44:32 AM 48.0030 3.9240 325° Northwest 434 499 32,000  Level FlightAware ADS-B
Sun 06:45:05 AM 48.0570 3.8660 324° Northwest 433 498 32,000  Level FlightAware ADS-B
Sun 06:45:42 AM 48.1180 3.8010 325° Northwest 433 498 32,000  Level FlightAware ADS-B
Sun 06:46:17 AM 48.1750 3.7400 324° Northwest 433 498 32,000  Level FlightAware ADS-B
Sun 06:46:53 AM 48.2320 3.6790 325° Northwest 433 498 32,000  Level FlightAware ADS-B
Sun 06:47:25 AM 48.2850 3.6220 324° Northwest 434 499 32,000  Level FlightAware ADS-B
Sun 06:48:01 AM 48.3430 3.5600 325° Northwest 434 499 32,000  Level FlightAware ADS-B
Sun 06:48:37 AM 48.4030 3.4960 325° Northwest 434 499 32,000  Level FlightAware ADS-B
Sun 06:49:11 AM 48.4610 3.4410 328° Northwest 445 512 32,000  Level FlightAware ADS-B
Sun 06:49:47 AM 48.5220 3.4010 337° Northwest 447 514 32,000  Level FlightAware ADS-B
Sun 06:50:23 AM 48.5930 3.3520 335° Northwest 446 513 32,000  Level FlightAware ADS-B
Sun 06:50:55 AM 48.6530 3.3090 335° Northwest 444 511 32,000  Level FlightAware ADS-B
Sun 06:51:31 AM 48.7210 3.2570 333° Northwest 444 511 32,000  Level FlightAware ADS-B
Sun 06:52:05 AM 48.7830 3.2100 333° Northwest 444 511 32,000  Level FlightAware ADS-B
Sun 06:52:41 AM 48.8510 3.1590 334° Northwest 444 511 32,000  Level FlightAware ADS-B
Sun 06:53:17 AM 48.9210 3.1340 347° North 465 535 32,000 86 Level FlightAware ADS-B
Sun 06:53:51 AM 48.9970 3.1230 355° North 466 536 32,100 600 Climbing FlightAware ADS-B
Sun 06:54:27 AM 49.0730 3.1110 354° North 461 531 32,700 917 Climbing FlightAware ADS-B
Sun 06:55:03 AM 49.1500 3.1010 355° North 457 526 33,200 833 Climbing FlightAware ADS-B
Sun 06:55:39 AM 49.2250 3.0900 355° North 457 526 33,700 727 Climbing FlightAware ADS-B
Sun 06:56:09 AM 49.2880 3.0820 355° North 456 525 34,000 265 Climbing FlightAware ADS-B
Sun 06:56:47 AM 49.3630 3.0590 349° North 451 519 34,000  Level FlightAware ADS-B
Sun 06:57:23 AM 49.4320 3.0080 334° Northwest 438 504 34,000  Level FlightAware ADS-B
Sun 06:57:49 AM 49.4710 2.9690 327° Northwest 436 502 34,000  Level FlightAware ADS-B
Sun 06:58:19 AM 49.5291 2.9116 327° Northwest 1 1 34,000  Level FlightAware UK
Sun 06:58:31 AM 49.5470 2.8910 327° Northwest 439 505 34,000  Level FlightAware ADS-B
Sun 06:59:07 AM 49.6080 2.8280 326° Northwest 439 505 34,000  Level FlightAware ADS-B
Sun 06:59:37 AM 49.6570 2.7770 326° Northwest 438 504 34,000  Level FlightAware ADS-B
Sun 07:00:16 AM 49.7220 2.7100 326° Northwest 431 496 34,000  Level FlightAware ADS-B
Sun 07:00:51 AM 49.7760 2.6540 326° Northwest 432 497 34,000  Level FlightAware ADS-B
Sun 07:01:26 AM 49.8400 2.5880 326° Northwest 431 496 34,000  Level FlightAware ADS-B
Sun 07:02:06 AM 49.9050 2.5200 326° Northwest 432 497 34,000  Level FlightAware ADS-B
Sun 07:02:07 AM 49.9136 2.5112 326° Northwest 468 539 34,000  Level FlightAware UK
Sun 07:02:41 AM 49.9620 2.4600 326° Northwest 432 497 34,000  Level FlightAware ADS-B
Sun 07:03:21 AM 50.0310 2.3880 326° Northwest 431 496 34,000  Level FlightAware ADS-B
Sun 07:03:53 AM 50.0800 2.3360 326° Northwest 438 504 34,000  Level FlightAware ADS-B
Sun 07:04:23 AM 50.1370 2.2760 326° Northwest 437 503 34,000  Level FlightAware ADS-B
Sun 07:05:05 AM 50.2040 2.2050 326° Northwest 436 502 34,000  Level FlightAware ADS-B
Sun 07:05:35 AM 50.2520 2.1540 326° Northwest 435 501 34,000  Level FlightAware ADS-B
Sun 07:06:11 AM 50.3120 2.0900 326° Northwest 434 499 34,000  Level FlightAware ADS-B
Sun 07:06:45 AM 50.3710 2.0240 325° Northwest 431 496 34,000  Level FlightAware ADS-B
Sun 07:07:22 AM 50.4290 1.9500 321° Northwest 426 490 34,000  Level FlightAware ADS-B
Sun 07:07:57 AM 50.4820 1.8770 319° Northwest 426 490 34,000  Level FlightAware ADS-B
Sun 07:08:33 AM 50.5340 1.8050 319° Northwest 425 489 34,000  Level FlightAware ADS-B
Sun 07:09:07 AM 50.5850 1.7350 319° Northwest 425 489 34,000  Level FlightAware ADS-B
Sun 07:09:45 AM 50.6400 1.6600 319° Northwest 425 489 34,000  Level FlightAware ADS-B
Sun 07:10:21 AM 50.6940 1.5840 318° Northwest 425 489 34,000  Level FlightAware ADS-B
Sun 07:10:53 AM 50.7410 1.5190 319° Northwest 425 489 34,000  Level FlightAware ADS-B
Sun 07:11:24 AM 50.7860 1.4570 319° Northwest 425 489 34,000  Level FlightAware ADS-B
Sun 07:12:03 AM 50.8400 1.3680 314° West 414 476 34,000  Level FlightAware ADS-B
Sun 07:12:37 AM 50.8730 1.2820 301° West 404 465 34,000  Level FlightAware ADS-B
Sun 07:13:13 AM 50.8960 1.1828 290° West 399 459 34,000  Level FlightAware ADS-B
Sun 07:13:47 AM 50.9156 1.0878 288° West 399 459 34,000  Level FlightAware ADS-B
Sun 07:14:21 AM 50.9370 0.9962 290° West 400 460 34,000  Level FlightAware ADS-B
Sun 07:14:52 AM 50.9588 0.9104 292° West 403 464 34,000  Level FlightAware ADS-B
Sun 07:15:24 AM 50.9816 0.8243 293° West 402 463 34,000  Level FlightAware ADS-B
Sun 07:15:58 AM 51.0058 0.7327 293° West 403 464 34,000  Level FlightAware ADS-B
Sun 07:16:32 AM 51.0301 0.6401 293° West 404 465 34,000  Level FlightAware ADS-B
Sun 07:17:02 AM 51.0515 0.5579 293° West 404 465 34,000  Level FlightAware ADS-B
Sun 07:17:34 AM 51.0743 0.4695 292° West 404 465 34,000  Level FlightAware ADS-B
Sun 07:18:05 AM 51.0960 0.3848 292° West 406 467 34,000  Level FlightAware ADS-B
Sun 07:18:35 AM 51.1175 0.3005 292° West 406 467 34,000  Level FlightAware ADS-B
Sun 07:19:12 AM 51.1432 0.1991 292° West 406 467 34,000  Level FlightAware ADS-B
Sun 07:19:43 AM 51.1649 0.1130 292° West 406 467 34,000  Level FlightAware ADS-B
Sun 07:20:13 AM 51.1860 0.0295 292° West 407 468 34,000  Level FlightAware ADS-B
Sun 07:20:46 AM 51.2088 -0.0609 292° West 408 470 34,000  Level FlightAware ADS-B
Sun 07:21:17 AM 51.2303 -0.1469 292° West 409 471 34,000  Level FlightAware ADS-B
Sun 07:21:47 AM 51.2514 -0.2316 292° West 409 471 34,000  Level FlightAware ADS-B
Sun 07:22:17 AM 51.2722 -0.3156 292° West 409 471 34,000  Level FlightAware ADS-B
Sun 07:22:49 AM 51.2946 -0.4062 292° West 409 471 34,000  Level FlightAware ADS-B
Sun 07:23:21 AM 51.3163 -0.4943 292° West 409 471 34,000  Level FlightAware ADS-B
Sun 07:23:52 AM 51.3377 -0.5819 291° West 409 471 34,000  Level FlightAware ADS-B
Sun 07:24:22 AM 51.3586 -0.6671 291° West 408 470 34,000  Level FlightAware ADS-B
Sun 07:24:52 AM 51.3793 -0.7520 291° West 408 470 34,000  Level FlightAware ADS-B
Sun 07:25:23 AM 51.3998 -0.8368 291° West 407 468 34,000  Level FlightAware ADS-B
Sun 07:25:56 AM 51.4219 -0.9286 291° West 406 467 34,000  Level FlightAware ADS-B
Sun 07:26:27 AM 51.4428 -1.0158 291° West 407 468 34,000  Level FlightAware ADS-B
Sun 07:26:57 AM 51.4634 -1.1012 291° West 407 468 34,000  Level FlightAware ADS-B
Sun 07:27:26 AM 51.4826 -1.1826 291° West 406 467 34,000  Level FlightAware ADS-B
Sun 07:27:58 AM 51.4995 -1.2731 287° West 403 464 34,000  Level FlightAware ADS-B
Sun 07:28:29 AM 51.5133 -1.3635 284° West 403 464 34,000  Level FlightAware ADS-B
Sun 07:29:00 AM 51.5264 -1.4532 283° West 404 465 34,000  Level FlightAware ADS-B
Sun 07:29:21 AM 51.5354 -1.5138 283° West 404 465 34,000  Level FlightAware ADS-B
Sun 07:29:50 AM 51.5530 -1.5962 289° West 408 470 34,000  Level FlightAware ADS-B
Sun 07:30:07 AM 51.5664 -1.6431 295° West 410 472 34,000  Level FlightAware ADS-B
Sun 07:30:38 AM 51.5944 -1.7266 298° West 412 474 34,000  Level FlightAware ADS-B
Sun 07:31:09 AM 51.6227 -1.8114 298° West 413 475 34,000  Level FlightAware ADS-B
Sun 07:31:41 AM 51.6517 -1.8969 299° West 413 475 34,000  Level FlightAware ADS-B
Sun 07:32:12 AM 51.6797 -1.9793 299° West 413 475 34,000  Level FlightAware ADS-B
Sun 07:32:49 AM 51.7138 -2.0801 299° West 412 474 34,000  Level FlightAware ADS-B
Sun 07:33:21 AM 51.7429 -2.1664 299° West 412 474 34,000  Level FlightAware ADS-B
Sun 07:33:52 AM 51.7707 -2.2497 298° West 411 473 34,000  Level FlightAware ADS-B
Sun 07:34:22 AM 51.7978 -2.3311 298° West 411 473 34,000  Level FlightAware ADS-B
Sun 07:34:55 AM 51.8270 -2.4185 298° West 411 473 34,000  Level FlightAware ADS-B
Sun 07:35:25 AM 51.8539 -2.5001 298° West 411 473 34,000  Level FlightAware ADS-B
Sun 07:35:58 AM 51.8829 -2.5879 298° West 411 473 34,000  Level FlightAware ADS-B
Sun 07:36:34 AM 51.9149 -2.6851 298° West 410 472 34,000  Level FlightAware ADS-B
Sun 07:37:30 AM 51.9640 -2.8350 298° West 409 471 34,000  Level FlightAware ADS-B
Sun 07:38:02 AM 51.9920 -2.9210 298° West 409 471 34,000  Level FlightAware ADS-B
Sun 07:38:32 AM 52.0190 -3.0030 298° West 408 470 34,000  Level FlightAware ADS-B
Sun 07:39:14 AM 52.0550 -3.1150 298° West 407 468 34,000  Level FlightAware ADS-B
Sun 07:39:15 AM 52.0579 -3.1245 298° West 468 539 34,000  Level FlightAware UK
Sun 07:39:50 AM 52.0860 -3.2150 297° West 407 468 34,000  Level FlightAware ADS-B
Sun 07:40:10 AM 52.1040 -3.2710 298° West 408 470 34,000  Level FlightAware ADS-B
Sun 07:40:40 AM 52.1298 -3.3528 297° West 408 470 34,000  Level FlightAware ADS-B
Sun 07:41:11 AM 52.1566 -3.4380 297° West 408 470 34,000  Level FlightAware ADS-B
Sun 07:41:45 AM 52.1860 -3.5317 297° West 408 470 34,000  Level FlightAware ADS-B
Sun 07:42:17 AM 52.2133 -3.6192 297° West 409 471 34,000  Level FlightAware ADS-B
Sun 07:43:20 AM 52.2671 -3.7926 297° West 410 472 34,000  Level FlightAware ADS-B
Sun 07:43:51 AM 52.2930 -3.8770 297° West 409 471 34,000  Level FlightAware ADS-B
Sun 07:44:27 AM 52.3244 -3.9787 297° West 470 541 34,000  Level FlightAware UK
Sun 07:44:30 AM 52.3240 -3.9770 297° West 410 472 34,000  Level FlightAware ADS-B
Sun 07:45:03 AM 52.3530 -4.0710 297° West 405 466 34,000  Level FlightAware ADS-B
Sun 07:45:44 AM 52.3880 -4.1850 297° West 406 467 34,000  Level FlightAware ADS-B
Sun 07:45:45 AM 52.3903 -4.1944 297° West 470 541 34,000  Level FlightAware UK
Sun 07:46:23 AM 52.4200 -4.2930 296° West 409 471 34,000  Level FlightAware ADS-B
Sun 07:46:54 AM 52.4450 -4.3740 297° West 409 471 34,000  Level FlightAware ADS-B
Sun 07:47:28 AM 52.4740 -4.4710 296° West 409 471 34,000  Level FlightAware ADS-B
Sun 07:48:08 AM 52.5080 -4.5850 296° West 408 470 34,000  Level FlightAware ADS-B
Sun 07:48:38 AM 52.5330 -4.6690 296° West 408 470 34,000  Level FlightAware ADS-B
Sun 07:49:13 AM 52.5630 -4.7670 297° West 409 471 34,000  Level FlightAware ADS-B
Sun 07:49:54 AM 52.5940 -4.8730 296° West 409 471 34,000  Level FlightAware ADS-B
Sun 07:50:24 AM 52.6200 -4.9620 296° West 409 471 34,000  Level FlightAware ADS-B
Sun 07:51:01 AM 52.6500 -5.0630 296° West 409 471 34,000  Level FlightAware ADS-B
Sun 07:51:33 AM 52.6770 -5.1550 296° West 408 470 34,000  Level FlightAware ADS-B
Sun 07:52:09 AM 52.7060 -5.2560 295° West 407 468 34,000  Level FlightAware ADS-B
Sun 07:52:45 AM 52.7360 -5.3570 296° West 404 465 34,000  Level FlightAware ADS-B
Sun 07:53:21 AM 52.7650 -5.4570 296° West 401 461 34,000  Level FlightAware ADS-B
Sun 07:53:57 AM 52.7930 -5.5570 295° West 404 465 34,000  Level FlightAware ADS-B
Sun 07:54:31 AM 52.8200 -5.6510 295° West 405 466 34,000  Level FlightAware ADS-B
Sun 07:55:07 AM 52.8490 -5.7520 295° West 405 466 34,000  Level FlightAware ADS-B
Sun 07:55:39 AM 52.8761 -5.8454 295° West 462 532 34,000  Level FlightAware UK
Sun 07:55:43 AM 52.8770 -5.8480 295° West 405 466 34,000  Level FlightAware ADS-B
Sun 07:56:13 AM 52.9010 -5.9360 294° West 406 467 34,000  Level FlightAware ADS-B
Sun 07:56:54 AM 52.9340 -6.0520 295° West 407 468 34,000  Level FlightAware ADS-B
Sun 07:57:26 AM 52.9600 -6.1460 295° West 407 468 34,000  Level FlightAware ADS-B
Sun 07:58:02 AM 52.9890 -6.2480 295° West 408 470 34,000  Level FlightAware ADS-B
Sun 07:58:38 AM 53.0170 -6.3490 295° West 407 468 34,000  Level FlightAware ADS-B
Sun 07:59:10 AM 53.0430 -6.4410 295° West 406 467 34,000  Level FlightAware ADS-B
Sun 07:59:45 AM 53.0701 -6.5392 295° West 460 529 34,000  Level FlightAware UK
Sun 07:59:46 AM 53.0700 -6.5400 295° West 406 467 34,000  Level FlightAware ADS-B
Sun 08:00:19 AM 53.0960 -6.6370 294° West 409 471 34,000  Level FlightAware ADS-B
Sun 08:00:57 AM 53.1260 -6.7450 295° West 410 472 34,000  Level FlightAware ADS-B
Sun 08:01:32 AM 53.1530 -6.8440 294° West 411 473 34,000  Level FlightAware ADS-B
Sun 08:02:08 AM 53.1810 -6.9480 294° West 412 474 34,000  Level FlightAware ADS-B
Sun 08:02:40 AM 53.2060 -7.0410 294° West 414 476 34,000  Level FlightAware ADS-B
Sun 08:03:15 AM 53.2342 -7.1431 294° West 464 534 34,000  Level FlightAware UK
Sun 08:03:16 AM 53.2330 -7.1380 294° West 414 476 34,000  Level FlightAware ADS-B
Sun 08:03:54 AM 53.2650 -7.2580 294° West 416 479 34,000  Level FlightAware ADS-B
Sun 08:04:24 AM 53.2880 -7.3440 294° West 416 479 34,000  Level FlightAware ADS-B
Sun 08:05:02 AM 53.3170 -7.4550 294° West 417 480 34,000  Level FlightAware ADS-B
Sun 08:05:38 AM 53.3460 -7.5630 294° West 417 480 34,000  Level FlightAware ADS-B
Sun 08:06:10 AM 53.3700 -7.6560 293° West 417 480 34,000  Level FlightAware ADS-B
Sun 08:06:47 AM 53.3990 -7.7670 294° West 417 480 34,000  Level FlightAware ADS-B
Sun 08:07:20 AM 53.4253 -7.8667 294° West 462 532 34,000  Level FlightAware UK
Sun 08:07:22 AM 53.4260 -7.8690 294° West 417 480 34,000  Level FlightAware ADS-B
Sun 08:07:58 AM 53.4530 -7.9760 293° West 418 481 34,000  Level FlightAware ADS-B
Sun 08:08:32 AM 53.4780 -8.0710 294° West 419 482 34,000  Level FlightAware ADS-B
Sun 08:09:07 AM 53.5050 -8.1760 293° West 419 482 34,000  Level FlightAware ADS-B
Sun 08:09:42 AM 53.5330 -8.2840 294° West 419 482 34,000  Level FlightAware ADS-B
Sun 08:10:20 AM 53.5631 -8.4034 294° West 462 532 34,000  Level FlightAware UK
Sun 08:10:24 AM 53.5650 -8.4130 294° West 420 483 34,000  Level FlightAware ADS-B
Sun 08:10:56 AM 53.5903 -8.5109 294° West 460 529 34,000  Level FlightAware UK
Sun 08:10:56 AM 53.5880 -8.5050 294° West 421 484 34,000  Level FlightAware ADS-B
Sun 08:11:26 AM 53.6130 -8.6014 294° West 464 534 34,000  Level FlightAware UK
Sun 08:11:35 AM 53.6150 -8.6110 294° West 422 486 34,000  Level FlightAware ADS-B
Sun 08:12:09 AM 53.6450 -8.7280 293° West 423 487 34,000  Level FlightAware ADS-B
Sun 08:12:43 AM 53.6670 -8.8190 292° West 424 488 34,000  Level FlightAware ADS-B
Sun 08:13:17 AM 53.6930 -8.9220 292° West 424 488 34,000  Level FlightAware ADS-B
Sun 08:13:26 AM 53.7038 -8.9653 292° West 462 532 34,000  Level FlightAware UK
Sun 08:14:08 AM 53.7340 -9.0880 293° West 425 489 34,000  Level FlightAware ADS-B
Sun 08:14:38 AM 53.7550 -9.1760 292° West 425 489 34,000  Level FlightAware ADS-B
Sun 08:15:20 AM 53.7850 -9.2960 293° West 427 491 34,000  Level FlightAware ADS-B
Sun 08:15:58 AM 53.8170 -9.4300 292° West 430 495 34,000  Level FlightAware ADS-B
Sun 08:16:40 AM 53.8450 -9.5440 293° West 429 494 34,000  Level FlightAware ADS-B
Sun 08:17:12 AM 53.8720 -9.6570 292° West 429 494 34,000  Level FlightAware ADS-B
Sun 08:17:53 AM 53.8990 -9.7700 292° West 428 493 34,000  Level FlightAware ADS-B
Sun 08:18:29 AM 53.9290 -9.8950 292° West 429 494 34,000  Level FlightAware ADS-B
Sun 08:19:00 AM 53.9510 -9.9890 292° West 428 493 34,000  Level FlightAware ADS-B
Sun 08:19:34 AM 53.9770 -10.0980 292° West 428 493 34,000  Level FlightAware ADS-B
Sun 08:20:14 AM 54.0060 -10.2250 291° West 425 489 34,000  Level FlightAware ADS-B
Sun 08:20:49 AM 54.0310 -10.3330 292° West 427 491 34,000  Level FlightAware ADS-B
Sun 08:21:19 AM 54.0540 -10.4290 292° West 428 493 34,000  Level FlightAware ADS-B
Sun 08:21:54 AM 54.0790 -10.5370 292° West 429 494 34,000  Level FlightAware ADS-B
Sun 08:22:29 AM 54.1030 -10.6460 291° West 429 494 34,000  Level FlightAware ADS-B
Sun 08:23:04 AM 54.1290 -10.7580 292° West 430 495 34,000  Level FlightAware ADS-B
Sun 08:23:39 AM 54.1550 -10.8710 291° West 431 496 34,000  Level FlightAware ADS-B
Sun 08:24:19 AM 54.1830 -10.9950 291° West 432 497 34,000  Level FlightAware ADS-B
Sun 08:24:49 AM 54.2050 -11.0940 291° West 432 497 34,000  Level FlightAware ADS-B
Sun 08:25:24 AM 54.2290 -11.2010 291° West 433 498 34,000  Level FlightAware ADS-B
Sun 08:26:04 AM 54.2580 -11.3350 290° West 434 499 34,000  Level FlightAware ADS-B
Sun 08:26:39 AM 54.2820 -11.4430 291° West 434 499 34,000  Level FlightAware ADS-B
Sun 08:27:09 AM 54.3050 -11.5440 291° West 434 499 34,000  Level FlightAware ADS-B
Sun 08:27:49 AM 54.3330 -11.6720 291° West 434 499 34,000  Level FlightAware ADS-B
Sun 08:28:20 AM 54.3540 -11.7700 290° West 434 499 34,000  Level FlightAware ADS-B
Sun 08:28:54 AM 54.3780 -11.8830 290° West 434 499 34,000  Level FlightAware ADS-B
Sun 08:29:34 AM 54.4070 -12.0170 290° West 434 499 34,000  Level FlightAware ADS-B
Sun 08:30:09 AM 54.4310 -12.1290 290° West 437 503 34,000  Level FlightAware ADS-B
Sun 08:30:44 AM 54.4550 -12.2420 290° West 437 503 34,000  Level FlightAware ADS-B
Sun 08:31:17 AM 54.4740 -12.3290 291° West 437 503 34,000  Level FlightAware ADS-B
Sun 08:31:53 AM 54.4950 -12.4300 290° West 437 503 34,000  Level FlightAware ADS-B
Sun 08:32:24 AM 54.5240 -12.5700 290° West 438 504 34,000  Level FlightAware ADS-B
Sun 08:32:59 AM 54.5480 -12.6860 290° West 438 504 34,000  Level FlightAware ADS-B
Sun 08:33:34 AM 54.5700 -12.7950 289° West 438 504 34,000  Level FlightAware ADS-B
Sun 08:34:09 AM 54.5940 -12.9080 290° West 439 505 34,000  Level FlightAware ADS-B
Sun 08:34:49 AM 54.6190 -13.0300 290° West 439 505 34,000  Level FlightAware ADS-B
Sun 08:35:23 AM 54.6380 -13.1270 289° West 439 505 34,000  Level FlightAware ADS-B
Sun 08:35:59 AM 54.6580 -13.2290 289° West 439 505 34,000  Level FlightAware ADS-B
Sun 08:36:29 AM 54.6860 -13.3620 290° West 439 505 34,000  Level FlightAware ADS-B
Sun 08:37:07 AM 54.7070 -13.4700 289° West 439 505 34,000  Level FlightAware ADS-B
Sun 08:37:44 AM 54.7280 -13.5740 289° West 439 505 34,000  Level FlightAware ADS-B
Sun 08:38:20 AM 54.7480 -13.6760 289° West 439 505 34,000  Level FlightAware ADS-B
Sun 08:38:57 AM 54.7690 -13.7810 289° West 439 505 34,000  Level FlightAware ADS-B
Sun 08:39:33 AM 54.7890 -13.8830 289° West 439 505 34,000  Level FlightAware ADS-B
Sun 08:40:09 AM 54.8090 -13.9850 289° West 439 505 34,000  Level FlightAware ADS-B
Sun 08:40:46 AM 54.8300 -14.0890 289° West 439 505 34,000  Level FlightAware ADS-B
Sun 08:41:22 AM 54.8500 -14.1920 289° West 439 505 34,000  Level FlightAware ADS-B
Sun 08:41:58 AM 54.8710 -14.2940 290° West 439 505 34,000  Level FlightAware ADS-B
Sun 08:42:34 AM 54.8910 -14.3960 289° West 439 505 34,000  Level FlightAware ADS-B
Sun 08:43:10 AM 54.9110 -14.4980 289° West 439 505 34,000  Level FlightAware ADS-B
Sun 08:43:46 AM 54.9310 -14.6000 289° West 439 505 34,000  Level FlightAware ADS-B
Sun 08:44:23 AM 54.9520 -14.7050 289° West 439 505 34,000  Level FlightAware ADS-B
Sun 08:45:00 AM 54.9730 -14.8110 289° West 439 505 34,000  Level FlightAware ADS-B
Sun 08:45:36 AM 54.9930 -14.9130 289° West 439 505 34,000  Level FlightAware ADS-B
Sun 08:46:12 AM 55.0130 -15.0150 289° West 439 505 34,000  Level FlightAware ADS-B
Sun 08:48:00 AM 55.0502 -15.3725 280° West  Level Estimated
Sun 08:49:00 AM 55.0704 -15.5710 280° West  Level Estimated
Sun 08:50:00 AM 55.0903 -15.7696 280° West  Level Estimated
Sun 08:51:00 AM 55.1098 -15.9685 280° West  Level Estimated
Sun 08:52:00 AM 55.1290 -16.1675 280° West  Level Estimated
Sun 08:53:00 AM 55.1479 -16.3668 279° West  Level Estimated
Sun 08:54:00 AM 55.1665 -16.5662 279° West  Level Estimated
Sun 08:55:00 AM 55.1846 -16.7649 279° West  Level Estimated
Sun 08:56:00 AM 55.2024 -16.9638 279° West  Level Estimated
Sun 08:57:00 AM 55.2200 -17.1629 279° West  Level Estimated
Sun 08:58:00 AM 55.2371 -17.3622 279° West  Level Estimated
Sun 08:59:00 AM 55.2540 -17.5616 279° West  Level Estimated
Sun 09:00:00 AM 55.2705 -17.7612 278° West  Level Estimated
Sun 09:01:00 AM 55.2867 -17.9610 278° West  Level Estimated
Sun 09:02:00 AM 55.3026 -18.1609 278° West  Level Estimated
Sun 09:03:00 AM 55.3182 -18.3610 278° West  Level Estimated
Sun 09:04:00 AM 55.3334 -18.5612 278° West  Level Estimated
Sun 09:05:00 AM 55.3483 -18.7616 278° West  Level Estimated
Sun 09:06:00 AM 55.3629 -18.9622 277° West  Level Estimated
Sun 09:07:00 AM 55.3771 -19.1628 277° West  Level Estimated
Sun 09:08:00 AM 55.3910 -19.3637 277° West  Level Estimated
Sun 09:09:00 AM 55.4046 -19.5646 277° West  Level Estimated
Sun 09:10:00 AM 55.4179 -19.7658 277° West  Level Estimated
Sun 09:11:00 AM 55.4308 -19.9670 277° West  Level Estimated
Sun 09:11:00 AM 55.0000 -20.0000 274° West 412 474 34,000  Level ETMS Enhanced Traffic Management System
Sun 09:12:00 AM 55.4434 -20.1684 276° West  Level Estimated
Sun 09:13:00 AM 55.4557 -20.3699 276° West  Level Estimated
Sun 09:14:00 AM 55.4676 -20.5715 276° West  Level Estimated
Sun 09:15:00 AM 55.4792 -20.7732 276° West  Level Estimated
Sun 09:16:00 AM 55.4905 -20.9751 276° West  Level Estimated
Sun 09:17:00 AM 55.0605 -21.7968 273° West 412 474 34,000  Level FlightAware Transoceanic
Sun 09:18:00 AM 55.0656 -21.9967 272° West 412 474 34,000  Level FlightAware Transoceanic
Sun 09:19:00 AM 55.0704 -22.1967 272° West 412 474 34,000  Level FlightAware Transoceanic
Sun 09:20:00 AM 55.0748 -22.3968 272° West 412 474 34,000  Level FlightAware Transoceanic
Sun 09:21:00 AM 55.0789 -22.5968 272° West 412 474 34,000  Level FlightAware Transoceanic
Sun 09:22:00 AM 55.0827 -22.7970 272° West 412 474 34,000  Level FlightAware Transoceanic
Sun 09:23:00 AM 55.0861 -22.9971 272° West 412 474 34,000  Level FlightAware Transoceanic
Sun 09:24:00 AM 55.0893 -23.1973 271° West 412 474 34,000  Level FlightAware Transoceanic
Sun 09:25:00 AM 55.0920 -23.3975 271° West 412 474 34,000  Level FlightAware Transoceanic
Sun 09:26:00 AM 55.0945 -23.5978 271° West 412 474 34,000  Level FlightAware Transoceanic
Sun 09:27:00 AM 55.0966 -23.7981 271° West 412 474 34,000  Level FlightAware Transoceanic
Sun 09:28:00 AM 55.0985 -23.9984 271° West 412 474 34,000  Level FlightAware Transoceanic
Sun 09:29:00 AM 55.0999 -24.1987 271° West 412 474 34,000  Level FlightAware Transoceanic
Sun 09:30:00 AM 55.1011 -24.3990 270° West 412 474 34,000  Level FlightAware Transoceanic
Sun 09:31:00 AM 55.1019 -24.5993 270° West 412 474 34,000  Level FlightAware Transoceanic
Sun 09:32:00 AM 55.1024 -24.7997 270° West 412 474 34,000  Level FlightAware Transoceanic
Sun 09:33:00 AM 55.1026 -25.0000 270° West 412 474 34,000  Level FlightAware Transoceanic
Sun 09:34:00 AM 55.1024 -25.2003 270° West 412 474 34,000  Level FlightAware Transoceanic
Sun 09:35:00 AM 55.1019 -25.4007 270° West 412 474 34,000  Level FlightAware Transoceanic
Sun 09:36:00 AM 55.1011 -25.6010 270° West 412 474 34,000  Level FlightAware Transoceanic
Sun 09:37:00 AM 55.0999 -25.8013 269° West 412 474 34,000  Level FlightAware Transoceanic
Sun 09:38:00 AM 55.0985 -26.0016 269° West 412 474 34,000  Level FlightAware Transoceanic
Sun 09:39:00 AM 55.0966 -26.2019 269° West 412 474 34,000  Level FlightAware Transoceanic
Sun 09:40:00 AM 55.0945 -26.4022 269° West 412 474 34,000  Level FlightAware Transoceanic
Sun 09:41:00 AM 55.0920 -26.6025 269° West 412 474 34,000  Level FlightAware Transoceanic
Sun 09:42:00 AM 55.0893 -26.8027 269° West 412 474 34,000  Level FlightAware Transoceanic
Sun 09:43:00 AM 55.0861 -27.0029 268° West 412 474 34,000  Level FlightAware Transoceanic
Sun 09:44:00 AM 55.0827 -27.2030 268° West 412 474 34,000  Level FlightAware Transoceanic
Sun 09:45:00 AM 55.0789 -27.4032 268° West 412 474 34,000  Level FlightAware Transoceanic
Sun 09:46:00 AM 55.0748 -27.6032 268° West 412 474 34,000  Level FlightAware Transoceanic
Sun 09:47:00 AM 55.0704 -27.8033 268° West 412 474 34,000  Level FlightAware Transoceanic
Sun 09:48:00 AM 55.0656 -28.0033 268° West 412 474 34,000  Level FlightAware Transoceanic
Sun 09:49:00 AM 55.0605 -28.2032 267° West 412 474 34,000  Level FlightAware Transoceanic
Sun 09:50:00 AM 55.0551 -28.4031 267° West 412 474 34,000  Level FlightAware Transoceanic
Sun 09:51:00 AM 55.0494 -28.6030 267° West 412 474 34,000  Level FlightAware Transoceanic
Sun 09:52:00 AM 55.0433 -28.8027 267° West 412 474 34,000  Level FlightAware Transoceanic
Sun 09:53:00 AM 55.0369 -29.0025 267° West 412 474 34,000  Level FlightAware Transoceanic
Sun 09:54:00 AM 55.0302 -29.2021 267° West 412 474 34,000  Level FlightAware Transoceanic
Sun 09:55:00 AM 55.0231 -29.4017 266° West 412 474 34,000  Level FlightAware Transoceanic
Sun 09:56:00 AM 55.0157 -29.6012 266° West 412 474 34,000  Level FlightAware Transoceanic
Sun 09:57:00 AM 55.0080 -29.8006 266° West 412 474 34,000  Level FlightAware Transoceanic
Sun 09:58:00 AM 55.0000 -30.0005 266° West  Level FlightAware Approximate
Sun 09:59:00 AM 55.0000 -30.0011 274° West  Level FlightAware Approximate
Sun 10:00:00 AM 55.0081 -30.2010 274° West  Level FlightAware Approximate
Sun 10:01:00 AM 55.0158 -30.4010 274° West  Level FlightAware Approximate
Sun 10:01:00 AM 55.0000 -30.0000 274° West 429 494 34,000  Level ETMS Enhanced Traffic Management System
Sun 10:02:00 AM 55.0232 -30.6010 274° West  Level FlightAware Approximate
Sun 10:03:00 AM 55.0303 -30.8012 274° West  Level FlightAware Approximate
Sun 10:04:00 AM 55.0370 -31.0014 273° West  Level FlightAware Approximate
Sun 10:05:00 AM 55.0434 -31.2016 273° West  Level FlightAware Approximate
Sun 10:06:00 AM 55.0495 -31.4020 273° West  Level FlightAware Approximate
Sun 10:07:00 AM 55.0552 -31.6024 273° West  Level FlightAware Approximate
Sun 10:08:00 AM 55.0676 -32.0801 272° West 429 494 34,000  Level FlightAware Transoceanic
Sun 10:09:00 AM 55.0724 -32.2884 272° West 429 494 34,000  Level FlightAware Transoceanic
Sun 10:10:00 AM 55.0769 -32.4968 272° West 429 494 34,000  Level FlightAware Transoceanic
Sun 10:11:00 AM 55.0810 -32.7052 272° West 429 494 34,000  Level FlightAware Transoceanic
Sun 10:12:00 AM 55.0847 -32.9137 272° West 429 494 34,000  Level FlightAware Transoceanic
Sun 10:13:00 AM 55.0881 -33.1222 272° West 429 494 34,000  Level FlightAware Transoceanic
Sun 10:14:00 AM 55.0912 -33.3308 271° West 429 494 34,000  Level FlightAware Transoceanic
Sun 10:15:00 AM 55.0938 -33.5394 271° West 429 494 34,000  Level FlightAware Transoceanic
Sun 10:16:00 AM 55.0961 -33.7480 271° West 429 494 34,000  Level FlightAware Transoceanic
Sun 10:17:00 AM 55.0981 -33.9566 271° West 429 494 34,000  Level FlightAware Transoceanic
Sun 10:18:00 AM 55.0997 -34.1653 271° West 429 494 34,000  Level FlightAware Transoceanic
Sun 10:19:00 AM 55.1010 -34.3740 271° West 429 494 34,000  Level FlightAware Transoceanic
Sun 10:20:00 AM 55.1018 -34.5826 270° West 429 494 34,000  Level FlightAware Transoceanic
Sun 10:21:00 AM 55.1024 -34.7913 270° West 429 494 34,000  Level FlightAware Transoceanic
Sun 10:22:00 AM 55.1026 -35.0000 270° West 429 494 34,000  Level FlightAware Transoceanic
Sun 10:23:00 AM 55.1024 -35.2087 270° West 429 494 34,000  Level FlightAware Transoceanic
Sun 10:24:00 AM 55.1018 -35.4174 270° West 429 494 34,000  Level FlightAware Transoceanic
Sun 10:25:00 AM 55.1010 -35.6260 269° West 429 494 34,000  Level FlightAware Transoceanic
Sun 10:26:00 AM 55.0997 -35.8347 269° West 429 494 34,000  Level FlightAware Transoceanic
Sun 10:27:00 AM 55.0981 -36.0434 269° West 429 494 34,000  Level FlightAware Transoceanic
Sun 10:28:00 AM 55.0961 -36.2520 269° West 429 494 34,000  Level FlightAware Transoceanic
Sun 10:29:00 AM 55.0938 -36.4606 269° West 429 494 34,000  Level FlightAware Transoceanic
Sun 10:30:00 AM 55.0912 -36.6692 269° West 429 494 34,000  Level FlightAware Transoceanic
Sun 10:31:00 AM 55.0881 -36.8778 268° West 429 494 34,000  Level FlightAware Transoceanic
Sun 10:32:00 AM 55.0847 -37.0863 268° West 429 494 34,000  Level FlightAware Transoceanic
Sun 10:33:00 AM 55.0810 -37.2948 268° West 429 494 34,000  Level FlightAware Transoceanic
Sun 10:34:00 AM 55.0769 -37.5032 268° West 429 494 34,000  Level FlightAware Transoceanic
Sun 10:35:00 AM 55.0724 -37.7116 268° West 429 494 34,000  Level FlightAware Transoceanic
Sun 10:36:00 AM 55.0676 -37.9199 268° West 429 494 34,000  Level FlightAware Transoceanic
Sun 10:37:00 AM 55.0625 -38.1283 267° West 429 494 34,000  Level FlightAware Transoceanic
Sun 10:38:00 AM 55.0569 -38.3365 267° West 429 494 34,000  Level FlightAware Transoceanic
Sun 10:39:00 AM 55.0511 -38.5447 267° West 429 494 34,000  Level FlightAware Transoceanic
Sun 10:40:00 AM 55.0448 -38.7528 267° West 429 494 34,000  Level FlightAware Transoceanic
Sun 10:41:00 AM 55.0382 -38.9608 267° West 429 494 34,000  Level FlightAware Transoceanic
Sun 10:42:00 AM 55.0313 -39.1688 267° West 429 494 34,000  Level FlightAware Transoceanic
Sun 10:43:00 AM 55.0240 -39.3768 266° West 429 494 34,000  Level FlightAware Transoceanic
Sun 10:44:00 AM 55.0164 -39.5846 266° West 429 494 34,000  Level FlightAware Transoceanic
Sun 10:45:00 AM 55.0084 -39.7923 266° West 429 494 34,000  Level FlightAware Transoceanic
Sun 10:46:00 AM 55.0003 -39.9922 266° West  Level FlightAware Approximate
Sun 10:47:00 AM 54.9919 -40.1921 266° West  Level FlightAware Approximate
Sun 10:48:00 AM 54.9894 -40.1839 264° West  Level FlightAware Approximate
Sun 10:48:46 AM 55.0000 -40.0000 264° West 441 507 34,000  Level ETMS Enhanced Traffic Management System
Sun 10:49:00 AM 54.9776 -40.3831 264° West  Level FlightAware Approximate
Sun 10:50:00 AM 54.9654 -40.5822 264° West  Level FlightAware Approximate
Sun 10:51:00 AM 54.9527 -40.7846 264° West  Level FlightAware Approximate
Sun 10:52:00 AM 54.9397 -40.9868 264° West  Level FlightAware Approximate
Sun 10:53:00 AM 54.9263 -41.1889 264° West  Level FlightAware Approximate
Sun 10:54:00 AM 54.9061 -41.4861 263° West 441 507 34,000  Level FlightAware Transoceanic
Sun 10:55:00 AM 54.8912 -41.6978 263° West 441 507 34,000  Level FlightAware Transoceanic
Sun 10:56:00 AM 54.8759 -41.9094 263° West 441 507 34,000  Level FlightAware Transoceanic
Sun 10:57:00 AM 54.8603 -42.1208 263° West 441 507 34,000  Level FlightAware Transoceanic
Sun 10:58:00 AM 54.8443 -42.3320 262° West 441 507 34,000  Level FlightAware Transoceanic
Sun 10:59:00 AM 54.8279 -42.5431 262° West 441 507 34,000  Level FlightAware Transoceanic
Sun 11:00:00 AM 54.8112 -42.7540 262° West 441 507 34,000  Level FlightAware Transoceanic
Sun 11:01:00 AM 54.7941 -42.9647 262° West 441 507 34,000  Level FlightAware Transoceanic
Sun 11:02:00 AM 54.7766 -43.1752 262° West 441 507 34,000  Level FlightAware Transoceanic
Sun 11:03:00 AM 54.7588 -43.3856 262° West 441 507 34,000  Level FlightAware Transoceanic
Sun 11:04:00 AM 54.7406 -43.5957 261° West 441 507 34,000  Level FlightAware Transoceanic
Sun 11:05:00 AM 54.7221 -43.8057 261° West 441 507 34,000  Level FlightAware Transoceanic
Sun 11:06:00 AM 54.7032 -44.0155 261° West 441 507 34,000  Level FlightAware Transoceanic
Sun 11:07:00 AM 54.6839 -44.2251 261° West 441 507 34,000  Level FlightAware Transoceanic
Sun 11:08:00 AM 54.6643 -44.4344 261° West 441 507 34,000  Level FlightAware Transoceanic
Sun 11:09:00 AM 54.6443 -44.6436 261° West 441 507 34,000  Level FlightAware Transoceanic
Sun 11:10:00 AM 54.6239 -44.8526 260° West 441 507 34,000  Level FlightAware Transoceanic
Sun 11:11:00 AM 54.6032 -45.0613 260° West 441 507 34,000  Level FlightAware Transoceanic
Sun 11:12:00 AM 54.5821 -45.2699 260° West 441 507 34,000  Level FlightAware Transoceanic
Sun 11:13:00 AM 54.5607 -45.4782 260° West 441 507 34,000  Level FlightAware Transoceanic
Sun 11:14:00 AM 54.5389 -45.6863 260° West 441 507 34,000  Level FlightAware Transoceanic
Sun 11:15:00 AM 54.5168 -45.8942 260° West 441 507 34,000  Level FlightAware Transoceanic
Sun 11:16:00 AM 54.4943 -46.1018 259° West 441 507 34,000  Level FlightAware Transoceanic
Sun 11:17:00 AM 54.4714 -46.3092 259° West 441 507 34,000  Level FlightAware Transoceanic
Sun 11:18:00 AM 54.4482 -46.5164 259° West 441 507 34,000  Level FlightAware Transoceanic
Sun 11:19:00 AM 54.4246 -46.7234 259° West 441 507 34,000  Level FlightAware Transoceanic
Sun 11:20:00 AM 54.4007 -46.9301 259° West 441 507 34,000  Level FlightAware Transoceanic
Sun 11:21:00 AM 54.3764 -47.1366 259° West 441 507 34,000  Level FlightAware Transoceanic
Sun 11:22:00 AM 54.3518 -47.3428 258° West 441 507 34,000  Level FlightAware Transoceanic
Sun 11:23:00 AM 54.3268 -47.5488 258° West 441 507 34,000  Level FlightAware Transoceanic
Sun 11:24:00 AM 54.3015 -47.7545 258° West 441 507 34,000  Level FlightAware Transoceanic
Sun 11:25:00 AM 54.2758 -47.9600 258° West 441 507 34,000  Level FlightAware Transoceanic
Sun 11:26:00 AM 54.2498 -48.1652 258° West 441 507 34,000  Level FlightAware Transoceanic
Sun 11:27:00 AM 54.2234 -48.3701 257° West 441 507 34,000  Level FlightAware Transoceanic
Sun 11:28:00 AM 54.1967 -48.5748 257° West 441 507 34,000  Level FlightAware Transoceanic
Sun 11:29:00 AM 54.1696 -48.7792 257° West 441 507 34,000  Level FlightAware Transoceanic
Sun 11:30:00 AM 54.1422 -48.9834 257° West 441 507 34,000  Level FlightAware Transoceanic
Sun 11:31:00 AM 54.1145 -49.1872 257° West 441 507 34,000  Level FlightAware Transoceanic
Sun 11:32:00 AM 54.0864 -49.3909 257° West 441 507 34,000  Level FlightAware Transoceanic
Sun 11:33:00 AM 54.0579 -49.5942 257° West 441 507 34,000  Level FlightAware Transoceanic
Sun 11:34:00 AM 54.0291 -49.7972 256° West 441 507 34,000  Level FlightAware Transoceanic
Sun 11:35:00 AM 54.0014 -49.9905 256° West  Level FlightAware Approximate
Sun 11:36:00 AM 53.9733 -50.1834 256° West  Level FlightAware Approximate
Sun 11:37:00 AM 53.9618 -50.1670 249° West  Level FlightAware Approximate
Sun 11:37:00 AM 54.0000 -50.0000 251° West 466 536 34,000  Level ETMS Enhanced Traffic Management System
Sun 11:38:00 AM 53.9191 -50.3518 249° West  Level FlightAware Approximate
Sun 11:39:00 AM 53.8761 -50.5363 249° West  Level FlightAware Approximate
Sun 11:40:00 AM 53.8331 -50.7192 248° West  Level FlightAware Approximate
Sun 11:41:00 AM 53.7899 -50.9017 248° West  Level FlightAware Approximate
Sun 11:42:00 AM 53.7464 -51.0839 248° West  Level FlightAware Approximate
Sun 11:43:00 AM 53.6433 -51.6481 249° West 466 536 34,000  Level FlightAware Transoceanic
Sun 11:44:00 AM 53.5971 -51.8522 249° West 466 536 34,000  Level FlightAware Transoceanic
Sun 11:45:00 AM 53.5506 -52.0558 249° West 466 536 34,000  Level FlightAware Transoceanic
Sun 11:46:00 AM 53.5037 -52.2589 249° West 466 536 34,000  Level FlightAware Transoceanic
Sun 11:47:00 AM 53.4565 -52.4616 249° West 466 536 34,000  Level FlightAware Transoceanic
Sun 11:48:00 AM 53.4090 -52.6638 248° West 466 536 34,000  Level FlightAware Transoceanic
Sun 11:49:00 AM 53.3611 -52.8656 248° West 466 536 34,000  Level FlightAware Transoceanic
Sun 11:50:00 AM 53.3129 -53.0669 248° West 466 536 34,000  Level FlightAware Transoceanic
Sun 11:51:00 AM 53.2643 -53.2678 248° West 466 536 34,000  Level FlightAware Transoceanic
Sun 11:51:32 AM 53.2833 -53.1000 247° West 450 518 34,000  Level Gander Center
Sun 11:52:00 AM 53.2154 -53.4682 248° West 466 536 34,000  Level FlightAware Transoceanic
Sun 11:52:32 AM 53.2500 -53.3000 255° West 450 518 34,000  Level Gander Center
Sun 11:53:00 AM 53.1661 -53.6681 248° West 466 536 34,000  Level FlightAware Transoceanic
Sun 11:54:00 AM 53.1166 -53.8676 247° West 466 536 34,000  Level FlightAware Transoceanic
Sun 11:54:32 AM 53.1500 -53.6833 247° West 440 506 34,000  Level Gander Center
Sun 11:55:00 AM 53.0086 -53.9386 202° Southwest  Level FlightAware Approximate
Sun 11:55:32 AM 53.1167 -53.8667 253° West 440 506 34,000  Level Gander Center
Sun 11:56:00 AM 53.0070 -53.9722 247° West  Level FlightAware Approximate
Sun 11:56:32 AM 53.0667 -54.0667 247° West 450 518 34,000  Level Gander Center
Sun 11:57:32 AM 53.0167 -54.2667 248° West 450 518 34,000  Level Gander Center
Sun 11:58:32 AM 52.9667 -54.4500 246° West 440 506 34,000  Level Gander Center
Sun 11:59:32 AM 52.9333 -54.6500 255° West 440 506 34,000  Level Gander Center
Sun 12:00:32 PM 52.8667 -54.8500 241° Southwest 430 495 34,000  Level Gander Center
Sun 12:01:32 PM 52.8333 -55.0167 252° West 440 506 34,000 275 Level Gander Center
Sun 12:02:21 PM 52.7833 -55.1667 241° Southwest 440 506 34,500 550 Climbing Moncton Center
Sun 12:03:21 PM 52.7333 -55.3500 246° West 430 495 35,000 229 Climbing Moncton Center
Sun 12:04:32 PM 52.6833 -55.5667 249° West 430 495 35,000  Level Gander Center
Sun 12:05:32 PM 52.6333 -55.7667 248° West 440 506 35,000  Level Gander Center
Sun 12:06:32 PM 52.5833 -55.9333 244° Southwest 440 506 35,000  Level Gander Center
Sun 12:07:32 PM 52.5500 -56.1333 255° West 430 495 35,000  Level Gander Center
Sun 12:08:32 PM 52.4833 -56.3167 239° Southwest 440 506 35,000  Level Gander Center
Sun 12:09:32 PM 52.4500 -56.4833 252° West 430 495 35,000  Level Gander Center
Sun 12:10:21 PM 52.4000 -56.6333 241° Southwest 440 506 35,000  Level Moncton Center
Sun 12:11:21 PM 52.3500 -56.8000 244° Southwest 440 506 35,000  Level Moncton Center
Sun 12:12:21 PM 52.3167 -57.0000 255° West 440 506 35,000  Level Moncton Center
Sun 12:13:20 PM 52.2500 -57.1833 239° Southwest 440 506 35,000  Level Moncton Center
Sun 12:14:32 PM 52.2000 -57.4000 249° West 440 506 35,000  Level Gander Center
Sun 12:15:20 PM 52.1667 -57.5500 250° West 430 495 35,000  Level Moncton Center
Sun 12:16:20 PM 52.1000 -57.7167 237° Southwest 430 495 35,000  Level Moncton Center
Sun 12:17:32 PM 52.0500 -57.9167 248° West 430 495 35,000  Level Gander Center
Sun 12:18:32 PM 51.9833 -58.1000 239° Southwest 430 495 35,000  Level Gander Center
Sun 12:19:32 PM 51.9333 -58.2667 244° Southwest 420 483 35,000  Level Gander Center
Sun 12:20:32 PM 51.8833 -58.4333 244° Southwest 430 495 35,000  Level Gander Center
Sun 12:21:32 PM 51.8500 -58.6333 255° West 430 495 35,000  Level Gander Center
Sun 12:22:20 PM 51.8000 -58.7667 239° Southwest 430 495 35,000  Level Moncton Center
Sun 12:23:32 PM 51.7333 -58.9667 242° Southwest 430 495 35,000  Level Gander Center
Sun 12:24:32 PM 51.6833 -59.1167 242° Southwest 430 495 35,000  Level Gander Center
Sun 12:25:32 PM 51.6167 -59.3167 242° Southwest 420 483 35,000  Level Gander Center
Sun 12:26:32 PM 51.5833 -59.4833 252° West 430 495 35,000  Level Gander Center
Sun 12:27:32 PM 51.5333 -59.6667 246° West 420 483 35,000  Level Gander Center
Sun 12:28:20 PM 51.4833 -59.8000 239° Southwest 430 495 35,000  Level Moncton Center
Sun 12:29:20 PM 51.4333 -59.9667 244° Southwest 430 495 35,000  Level Moncton Center
Sun 12:30:32 PM 51.3667 -60.1500 240° Southwest 420 483 35,000  Level Gander Center
Sun 12:31:32 PM 51.3000 -60.3167 237° Southwest 430 495 35,000  Level Gander Center
Sun 12:32:32 PM 51.2500 -60.5000 247° West 430 495 35,000  Level Gander Center
Sun 12:33:32 PM 51.2000 -60.6667 244° Southwest 430 495 35,000  Level Gander Center
Sun 12:34:32 PM 51.1333 -60.8500 240° Southwest 420 483 35,000  Level Gander Center
Sun 12:36:23 PM 51.0500 -61.1167 244° Southwest 430 495 35,000  Level Montreal Center
Sun 12:37:23 PM 50.9833 -61.2667 235° Southwest 430 495 35,000  Level Montreal Center
Sun 12:38:23 PM 50.9167 -61.4500 240° Southwest 430 495 35,000  Level Montreal Center
Sun 12:39:23 PM 50.8667 -61.6000 242° Southwest 430 495 35,000  Level Montreal Center
Sun 12:40:23 PM 50.8333 -61.7833 254° West 430 495 35,000  Level Montreal Center
Sun 12:41:23 PM 50.7667 -61.9333 235° Southwest 430 495 35,000  Level Montreal Center
Sun 12:42:23 PM 50.7167 -62.0833 242° Southwest 420 483 35,000  Level Montreal Center
Sun 12:43:23 PM 50.6500 -62.2667 240° Southwest 420 483 35,000  Level Montreal Center
Sun 12:44:23 PM 50.6000 -62.4500 247° West 420 483 35,000  Level Montreal Center
Sun 12:45:23 PM 50.5333 -62.6000 235° Southwest 420 483 35,000  Level Montreal Center
Sun 12:46:23 PM 50.4833 -62.7500 242° Southwest 430 495 35,000  Level Montreal Center
Sun 12:47:23 PM 50.4167 -62.9333 240° Southwest 430 495 35,000  Level Montreal Center
Sun 12:48:23 PM 50.3667 -63.0667 240° Southwest 430 495 35,000  Level Montreal Center
Sun 12:49:23 PM 50.3000 -63.2500 240° Southwest 430 495 35,000  Level Montreal Center
Sun 12:50:23 PM 50.2500 -63.4000 243° Southwest 420 483 35,000 50 Level Montreal Center
Sun 12:51:23 PM 50.1833 -63.5833 240° Southwest 420 483 35,100 400 Climbing Montreal Center
Sun 12:52:23 PM 50.1333 -63.7167 240° Southwest 420 483 35,800 450 Climbing Montreal Center
Sun 12:53:23 PM 50.0667 -63.9000 241° Southwest 420 483 36,000 100 Climbing Montreal Center
Sun 12:54:23 PM 50.0167 -64.0500 243° Southwest 410 472 36,000  Level Montreal Center
Sun 12:55:23 PM 49.9667 -64.1833 240° Southwest 410 472 36,000 300 Level Montreal Center
Sun 12:56:23 PM 49.9000 -64.3667 241° Southwest 410 472 36,600 800 Climbing Montreal Center
Sun 12:57:23 PM 49.8500 -64.5167 243° Southwest 400 460 37,600 700 Climbing Montreal Center
Sun 12:58:23 PM 49.8000 -64.6500 240° Southwest 400 460 38,000 200 Climbing Montreal Center
Sun 12:59:23 PM 49.7333 -64.8000 236° Southwest 410 472 38,000  Level Montreal Center
Sun 01:00:23 PM 49.6667 -64.9667 238° Southwest 410 472 38,000  Level Montreal Center
Sun 01:01:23 PM 49.6167 -65.1167 243° Southwest 410 472 38,000  Level Montreal Center
Sun 01:02:23 PM 49.5500 -65.2667 236° Southwest 410 472 38,000  Level Montreal Center
Sun 01:03:23 PM 49.5000 -65.4000 240° Southwest 410 472 38,000  Level Montreal Center
Sun 01:04:23 PM 49.4333 -65.5500 236° Southwest 400 460 38,000  Level Montreal Center
Sun 01:05:23 PM 49.3833 -65.7167 245° Southwest 400 460 38,000  Level Montreal Center
Sun 01:06:23 PM 49.3333 -65.8500 240° Southwest 400 460 38,000  Level Montreal Center
Sun 01:07:23 PM 49.2667 -66.0000 236° Southwest 400 460 38,000  Level Montreal Center
Sun 01:08:23 PM 49.2000 -66.1500 236° Southwest 400 460 38,000  Level Montreal Center
Sun 01:09:23 PM 49.1500 -66.2833 240° Southwest 400 460 38,000  Level Montreal Center
Sun 01:10:23 PM 49.1000 -66.4167 240° Southwest 400 460 38,000  Level Montreal Center
Sun 01:11:23 PM 49.0333 -66.5667 236° Southwest 400 460 38,000  Level Montreal Center
Sun 01:12:23 PM 48.9667 -66.7333 239° Southwest 400 460 38,000  Level Montreal Center
Sun 01:13:23 PM 48.9167 -66.8667 240° Southwest 400 460 38,000  Level Montreal Center
Sun 01:14:23 PM 48.8500 -67.0167 236° Southwest 410 472 38,000  Level Montreal Center
Sun 01:15:23 PM 48.7833 -67.1500 233° Southwest 410 472 38,000  Level Montreal Center
Sun 01:16:23 PM 48.7333 -67.3167 246° West 410 472 38,000  Level Montreal Center
Sun 01:17:23 PM 48.6667 -67.4500 233° Southwest 400 460 38,000  Level Montreal Center
Sun 01:18:23 PM 48.6167 -67.5833 240° Southwest 410 472 38,000  Level Montreal Center
Sun 01:23:43 PM 48.2890 -68.4010 240° Southwest 409 471 38,000  Level FlightAware ADS-B
Sun 01:24:26 PM 48.2530 -68.4820 236° Southwest 409 471 38,000  Level FlightAware ADS-B
Sun 01:25:03 PM 48.2060 -68.5900 237° Southwest 412 474 38,000  Level FlightAware ADS-B
Sun 01:25:33 PM 48.1770 -68.6570 237° Southwest 412 474 38,000  Level FlightAware ADS-B
Sun 01:26:13 PM 48.1320 -68.7560 236° Southwest 412 474 38,000  Level FlightAware ADS-B
Sun 01:26:43 PM 48.1010 -68.8270 237° Southwest 413 475 38,000  Level FlightAware ADS-B
Sun 01:27:18 PM 48.0650 -68.9090 237° Southwest 412 474 38,000  Level FlightAware ADS-B
Sun 01:27:55 PM 48.0270 -68.9930 236° Southwest 413 475 38,000  Level FlightAware ADS-B
Sun 01:28:33 PM 47.9850 -69.0880 237° Southwest 413 475 38,000  Level FlightAware ADS-B
Sun 01:29:03 PM 47.9530 -69.1590 236° Southwest 414 476 38,000  Level FlightAware ADS-B
Sun 01:29:38 PM 47.9160 -69.2410 236° Southwest 414 476 38,000  Level FlightAware ADS-B
Sun 01:30:13 PM 47.8790 -69.3230 236° Southwest 414 476 38,000  Level FlightAware ADS-B
Sun 01:30:48 PM 47.8410 -69.4060 236° Southwest 414 476 38,000  Level FlightAware ADS-B
Sun 01:31:33 PM 47.7940 -69.5110 236° Southwest 416 479 38,000  Level FlightAware ADS-B
Sun 01:32:08 PM 47.7550 -69.5930 235° Southwest 416 479 38,000  Level FlightAware ADS-B
Sun 01:32:38 PM 47.7190 -69.6600 231° Southwest 417 480 38,000  Level FlightAware ADS-B
Sun 01:33:23 PM 47.6660 -69.7600 232° Southwest 419 482 38,000  Level FlightAware ADS-B
Sun 01:33:59 PM 47.6230 -69.8390 231° Southwest 419 482 38,000  Level FlightAware ADS-B
Sun 01:34:33 PM 47.5800 -69.9170 231° Southwest 419 482 38,000  Level FlightAware ADS-B
Sun 01:35:08 PM 47.5380 -69.9950 231° Southwest 420 483 38,000  Level FlightAware ADS-B
Sun 01:35:43 PM 47.4950 -70.0720 230° Southwest 420 483 38,000  Level FlightAware ADS-B
Sun 01:36:18 PM 47.4520 -70.1500 231° Southwest 420 483 38,000  Level FlightAware ADS-B
Sun 01:36:53 PM 47.4100 -70.2270 231° Southwest 420 483 38,000  Level FlightAware ADS-B
Sun 01:37:33 PM 47.3610 -70.3160 231° Southwest 419 482 38,000  Level FlightAware ADS-B
Sun 01:38:13 PM 47.3120 -70.4040 231° Southwest 419 482 38,000  Level FlightAware ADS-B
Sun 01:38:43 PM 47.2750 -70.4700 230° Southwest 419 482 38,000  Level FlightAware ADS-B
Sun 01:39:23 PM 47.2270 -70.5570 231° Southwest 418 481 38,000  Level FlightAware ADS-B
Sun 01:39:53 PM 47.1900 -70.6230 230° Southwest 418 481 38,000  Level FlightAware ADS-B
Sun 01:40:29 PM 47.1460 -70.7010 230° Southwest 417 480 38,000  Level FlightAware ADS-B
Sun 01:41:08 PM 47.0990 -70.7850 231° Southwest 416 479 38,000  Level FlightAware ADS-B
Sun 01:41:38 PM 47.0620 -70.8500 230° Southwest 416 479 38,000  Level FlightAware ADS-B
Sun 01:42:13 PM 47.0200 -70.9240 230° Southwest 415 478 38,000  Level FlightAware ADS-B
Sun 01:42:53 PM 46.9750 -71.0040 231° Southwest 415 478 38,000  Level FlightAware ADS-B
Sun 01:43:23 PM 46.9350 -71.0750 230° Southwest 414 476 38,000  Level FlightAware ADS-B
Sun 01:43:58 PM 46.8930 -71.1480 230° Southwest 414 476 38,000  Level FlightAware ADS-B
Sun 01:44:33 PM 46.8490 -71.2250 230° Southwest 413 475 38,000  Level FlightAware ADS-B
Sun 01:45:13 PM 46.8000 -71.3110 230° Southwest 412 474 38,000  Level FlightAware ADS-B
Sun 01:45:43 PM 46.7640 -71.3730 230° Southwest 412 474 38,000  Level FlightAware ADS-B
Sun 01:46:23 PM 46.7150 -71.4570 230° Southwest 411 473 38,000  Level FlightAware ADS-B
Sun 01:46:53 PM 46.6800 -71.5200 231° Southwest 410 472 38,000 -554 Level FlightAware ADS-B
Sun 01:47:28 PM 46.6360 -71.5940 229° Southwest 414 476 37,400 -1,371 Descending FlightAware ADS-B
Sun 01:48:03 PM 46.5930 -71.6690 230° Southwest 420 483 36,400 -1,575 Descending FlightAware ADS-B
Sun 01:48:48 PM 46.5310 -71.7620 226° Southwest 428 493 35,300 -1,725 Descending FlightAware ADS-B
Sun 01:49:23 PM 46.4790 -71.8300 222° Southwest 442 509 34,100 -2,143 Descending FlightAware ADS-B
Sun 01:49:58 PM 46.4260 -71.8980 221° Southwest 442 509 32,800 -2,571 Descending FlightAware ADS-B
Sun 01:50:33 PM 46.3730 -71.9670 222° Southwest 445 512 31,100 -2,229 Descending FlightAware ADS-B
Sun 01:51:08 PM 46.3190 -72.0360 221° Southwest 436 502 30,200 -1,690 Descending FlightAware ADS-B
Sun 01:51:44 PM 46.2670 -72.1020 221° Southwest 429 494 29,100 -2,229 Descending FlightAware ADS-B
Sun 01:52:18 PM 46.2160 -72.1680 222° Southwest 423 487 27,600 -2,609 Descending FlightAware ADS-B
Sun 01:52:53 PM 46.1650 -72.2330 221° Southwest 419 482 26,100 -2,585 Descending FlightAware ADS-B
Sun 01:53:23 PM 46.1230 -72.2860 221° Southwest 415 478 24,800 -2,571 Descending FlightAware ADS-B
Sun 01:54:03 PM 46.0650 -72.3600 222° Southwest 410 472 23,100 -2,480 Descending FlightAware ADS-B
Sun 01:54:38 PM 46.0160 -72.4220 221° Southwest 403 464 21,700 -2,400 Descending FlightAware ADS-B
Sun 01:55:18 PM 45.9610 -72.4910 221° Southwest 394 453 20,100 -2,400 Descending FlightAware ADS-B
Sun 01:55:53 PM 45.9140 -72.5510 222° Southwest 385 443 18,700 -2,560 Descending FlightAware ADS-B
Sun 01:56:33 PM 45.8600 -72.6180 221° Southwest 383 441 16,900 -2,486 Descending FlightAware ADS-B
Sun 01:57:03 PM 45.8210 -72.6680 222° Southwest 378 435 15,800 -2,215 Descending FlightAware ADS-B
Sun 01:57:38 PM 45.7760 -72.7240 221° Southwest 372 428 14,500 -2,280 Descending FlightAware ADS-B
Sun 01:57:53 PM 45.7580 -72.7510 226° Southwest 366 421 13,900 -2,400 Descending FlightAware ADS-B
Sun 01:58:08 PM 45.7470 -72.7840 244° Southwest 360 414 13,300 -2,400 Descending FlightAware ADS-B
Sun 01:58:23 PM 45.7400 -72.8180 254° West 355 409 12,700 -2,204 Descending FlightAware ADS-B
Sun 01:58:57 PM 45.7320 -72.8950 262° West 339 390 11,500 -1,944 Descending FlightAware ADS-B
Sun 01:59:34 PM 45.7240 -72.9730 262° West 315 362 10,400 -1,167 Descending FlightAware ADS-B
Sun 02:00:09 PM 45.7170 -73.0400 262° West 269 310 10,100 -511 Descending FlightAware ADS-B
Sun 02:00:21 PM 45.7150 -73.0620 263° West 253 291 10,000 -938 Descending FlightAware ADS-B
Sun 02:00:41 PM 45.7120 -73.0930 262° West 240 276 9,600 -1,667 Descending FlightAware ADS-B
Sun 02:00:57 PM 45.7090 -73.1190 261° West 248 285 9,000 -1,784 Descending FlightAware ADS-B
Sun 02:01:18 PM 45.7040 -73.1480 256° West 253 291 8,500 -1,500 Descending FlightAware ADS-B
Sun 02:01:37 PM 45.6980 -73.1840 257° West 255 293 8,000 -1,459 Descending FlightAware ADS-B
Sun 02:01:55 PM 45.6930 -73.2130 256° West 253 291 7,600 -1,263 Descending FlightAware ADS-B
Sun 02:02:15 PM 45.6880 -73.2460 258° West 250 288 7,200 -1,313 Descending FlightAware ADS-B
Sun 02:02:27 PM 45.6850 -73.2640 257° West 249 287 6,900 -1,250 Descending FlightAware ADS-B
Sun 02:02:39 PM 45.6810 -73.2840 254° West 247 284 6,700 -1,333 Descending FlightAware ADS-B
Sun 02:03:03 PM 45.6750 -73.3220 257° West 243 280 6,100 -1,333 Descending FlightAware ADS-B
Sun 02:03:15 PM 45.6720 -73.3410 257° West 237 273 5,900 -1,167 Descending FlightAware ADS-B
Sun 02:03:39 PM 45.6660 -73.3750 256° West 228 262 5,400 -1,304 Descending FlightAware ADS-B
Sun 02:04:01 PM 45.6600 -73.4080 255° West 227 261 4,900 -1,286 Descending FlightAware ADS-B
Sun 02:04:21 PM 45.6550 -73.4370 256° West 222 255 4,500 -1,313 Descending FlightAware ADS-B
Sun 02:04:33 PM 45.6520 -73.4540 256° West 219 252 4,200 -1,500 Descending FlightAware ADS-B
Sun 02:04:53 PM 45.6470 -73.4820 256° West 212 244 3,700 -1,350 Descending FlightAware ADS-B
Sun 02:05:13 PM 45.6430 -73.5090 258° West 206 237 3,300 -1,263 Descending FlightAware ADS-B
Sun 02:05:31 PM 45.6370 -73.5300 248° West 208 239 2,900 -1,154 Descending FlightAware ADS-B
Sun 02:05:39 PM 45.6320 -73.5400 234° Southwest 206 237 2,800 -250 Descending FlightAware ADS-B
Sun 02:05:55 PM 45.6220 -73.5540 224° Southwest 196 226 2,800  Level FlightAware ADS-B
Sun 02:06:11 PM 45.6110 -73.5680 222° Southwest 189 217 2,800  Level FlightAware ADS-B
Sun 02:06:32 PM 45.5980 -73.5860 224° Southwest 194 223 2,800 -409 Level FlightAware ADS-B
Sun 02:06:55 PM 45.5830 -73.6060 223° Southwest 190 219 2,500 -818 Descending FlightAware ADS-B
Sun 02:07:16 PM 45.5690 -73.6230 220° Southwest 181 208 2,200 -857 Descending FlightAware ADS-B
Sun 02:07:37 PM 45.5570 -73.6390 223° Southwest 165 190 1,900 -837 Descending FlightAware ADS-B
Sun 02:07:59 PM 45.5450 -73.6550 223° Southwest 152 175 1,600 -857 Descending FlightAware ADS-B
Sun 02:08:19 PM 45.5350 -73.6680 222° Southwest 148 170 1,300 -789 Descending FlightAware ADS-B
Sun 02:08:37 PM 45.5260 -73.6800 223° Southwest 144 166 1,100 -800 Descending FlightAware ADS-B
Sun 02:08:49 PM 45.5200 -73.6880 223° Southwest 134 154 900 -706 Descending FlightAware ADS-B
Sun 02:09:11 PM 45.5100 -73.7010 222° Southwest 133 153 700 -698 Descending FlightAware ADS-B
Sun 02:09:32 PM 45.5010 -73.7130 223° Southwest 134 154 400 -783 Descending FlightAware ADS-B
Sun 02:09:57 PM 45.4900 -73.7270 222° Southwest 133 153 100 -720 Descending FlightAware ADS-B
Sun 02:10:29 PM 45.4770 -73.7440 223° Southwest 90 104 -188 Descending FlightAware ADS-B

Login

Don't have an account? Register now (free) for customized features, flight alerts, and more!